Peshtigo, WI

6:09 AM CST on February 21, 2017 (GMT -0600)
Tyco Fire Protection | | Change Station

Elev 617 ft 45.08 °N, 87.64 °W | Updated 4 minutes ago

Clear
Clear
49.2 °F
Feels Like 49 °F
N
3.0
Wind Variable Wind from WSW
Gusts 19.0 mph

Today
High -- | Low -- °F
--% Chance of Precip.
Yesterday
High -- | Low -- °F
Precip. -- in
Pressure 29.86 in
Visibility 9.0 miles
Clouds Clear
Windchill 49 °F
Dew Point 48 °F
Humidity 95%
Rainfall 0.24 in
Snow Depth Not available.
6:41 AM 5:27 PM
Waning Crescent, 26% visible
METAR KMNM 211156Z AUTO 27005KT 9SM CLR 10/09 A2979 RMK AO2 SLP112 60000 70021 T01000089 10106 20078 51015
Pressure 29.86 in
Visibility 9.0 miles
Clouds Clear
Windchill 49 °F
Dew Point 48 °F
Humidity 95%
Rainfall 0.24 in
Snow Depth Not available.
6:41 AM 5:27 PM
Waning Crescent, 26% visible
METAR KMNM 211156Z AUTO 27005KT 9SM CLR 10/09 A2979 RMK AO2 SLP112 60000 70021 T01000089 10106 20078 51015

Get Your Daily Forecast Email!

Thanks for signing up!

Be on the lookout for a verification email in your inbox.

You'll start receiving the daily forecast at 8 AM.

×

10-Day Weather Forecast

Almanac

Astronomy

Feb. 21, 2017 Rise Set
Actual Time
Civil Twilight
Nautical Twilight
Astronomical Twilight
Moon
Length of Visible Light
Length of Day
Tomorrow will be .
, % of the Moon is Illuminated

Today's Extremes

State Highs State Lows

Community

WunderPhotos

Upload Photos

1,962,540 photos uploaded!

WunderBlog® & News

Nearby

Air Quality

  Air Quality AQ Index Pollutant
Not available.

Snow Depth

Station Depth Elevation

Earthquake Activity

City Distance Mag. Time & Date
Minimum magnitude displayed is 2.5.

Coastal Water Temperatures

Place Temperature

Stations

Nearby Weather Stations

Station Location Temp. Windchill Dew Point Humidity Wind Precip. Elev Updated Type
                   

Watches & Warnings

There are currently no watches in effect.